KCPR/CPR METAR and TAF weather

Enter ICAO airport designator
Station Type Date Time Source
KCPR METAR 2020/03/29 10:53 UTC NOAA

KCPR 291053Z 21010KT 10SM CLR M03/M06 A2998 RMK AO2 SLP158 T10281061 $


Station Type Date Time Source
KCPR Decoded METAR 2020/03/29 10:53 UTC NOAA

NATRONA COUNTY INTERNATIONAL AIRPORT , WY, United States (KCPR) 42-54N 106-28W 1621M
Mar 29, 2020 - 06:53 AM EDT / 2020.03.29 1053 UTC
Wind: from the SSW (210 degrees) at 12 MPH (10 KT):0
Visibility: 10 mile(s):0
Sky conditions: clear
Temperature: 27.0 F (-2.8 C)
Windchill: 15 F (-9 C):1
Dew Point: 21.0 F (-6.1 C)
Relative Humidity: 77%
Pressure (altimeter): 29.98 in. Hg (1015 hPa)
ob: KCPR 291053Z 21010KT 10SM CLR M03/M06 A2998 RMK AO2 SLP158 T10281061
cycle: 11

Station Type Date Time Source
KCPR TAF 2020/03/29 06:24 UTC NOAA

TAF KCPR 290521Z 2906/3006 24007KT P6SM SCT080
FM291600 23013G23KT P6SM SKC
FM292100 23013G23KT P6SM SCT090
FM300100 23007KT P6SM SCT100

Example: see airport list